Shikarpur Weather



Shikarpur's Current Weather

Temprature 43o haze

haze

Rain: 0 %

Min Temprature43o
Max Temprature43o
Humidity32
Wind Speed5.1 m/h
Sun Rise05:30:51
Sun Set19:25:23
Current Time: 26-Jun-2019 14:56:40
Lat/Lon: 27.96, 68.63




Shikarpur's Geo Location



Shikarpur's Weather Forecast

Time Overall Temp Min Temp Max Temp Humidity Wind Speed Rain
26-Jun-2019 (Wed)
17:00:00 scattered clouds 40.400 40.400 43.650 15 6.62 m/h 0 %
20:00:00 clear sky 38.710 38.710 41.147 15 4.24 m/h 0 %
23:00:00 clear sky 36.120 36.120 37.740 32 7.27 m/h 0 %
27-Jun-2019 (Thu)
02:00:00 few clouds 36.070 36.070 36.879 35 4.84 m/h 0 %
05:00:00 clear sky 33.865 33.865 33.865 42 6.34 m/h 0 %
08:00:00 clear sky 36.550 36.550 36.550 36 7.27 m/h 0 %
11:00:00 clear sky 43.674 43.674 43.674 17 4.41 m/h 0 %
14:00:00 clear sky 47.950 47.950 47.950 7 4.38 m/h 0 %
17:00:00 clear sky 48.080 48.080 48.080 7 5.6 m/h 0 %
20:00:00 clear sky 41.894 41.894 41.894 12 4.55 m/h 0 %
23:00:00 clear sky 35.935 35.935 35.935 38 7.69 m/h 0 %
28-Jun-2019 (Fri)
02:00:00 clear sky 33.328 33.328 33.328 45 6.49 m/h 0 %
05:00:00 clear sky 31.128 31.128 31.128 52 5.11 m/h 0 %
08:00:00 clear sky 33.169 33.169 33.169 45 3.2 m/h 0 %
11:00:00 clear sky 41.225 41.225 41.225 24 1.74 m/h 0 %
14:00:00 clear sky 46.631 46.631 46.631 12 2.35 m/h 0 %
17:00:00 clear sky 47.350 47.350 47.350 10 5.33 m/h 0 %
20:00:00 clear sky 41.950 41.950 41.950 17 8.15 m/h 0 %
23:00:00 clear sky 34.972 34.972 34.972 45 7.56 m/h 0 %
29-Jun-2019 (Sat)
02:00:00 clear sky 31.872 31.872 31.872 56 6.18 m/h 0 %
05:00:00 clear sky 30.159 30.159 30.159 64 4.4 m/h 0 %
08:00:00 clear sky 32.987 32.987 32.987 53 2.62 m/h 0 %
11:00:00 clear sky 40.750 40.750 40.750 29 2.56 m/h 0 %
14:00:00 clear sky 46.150 46.150 46.150 16 3.27 m/h 0 %
17:00:00 clear sky 47.891 47.891 47.891 10 4.09 m/h 0 %
20:00:00 clear sky 42.650 42.650 42.650 13 5.28 m/h 0 %
23:00:00 clear sky 35.350 35.350 35.350 46 8.22 m/h 0 %
30-Jun-2019 (Sun)
02:00:00 clear sky 32.156 32.156 32.156 57 7.8 m/h 0 %
05:00:00 clear sky 30.882 30.882 30.882 63 6.29 m/h 0 %
08:00:00 clear sky 33.872 33.872 33.872 51 3.41 m/h 0 %
11:00:00 clear sky 41.018 41.018 41.018 29 3.41 m/h 0 %
14:00:00 clear sky 46.708 46.708 46.708 17 4.28 m/h 0 %
17:00:00 clear sky 47.850 47.850 47.850 13 6.32 m/h 0 %
20:00:00 clear sky 42.450 42.450 42.450 22 7.33 m/h 0 %
23:00:00 clear sky 35.950 35.950 35.950 42 7.5 m/h 0 %
01-Jul-2019 (Mon)
02:00:00 clear sky 32.050 32.050 32.050 56 6.48 m/h 0 %
05:00:00 clear sky 29.935 29.935 29.935 66 4.8 m/h 0 %
08:00:00 clear sky 32.150 32.150 32.150 57 4.34 m/h 0 %
11:00:00 clear sky 39.250 39.250 39.250 32 3.31 m/h 0 %
14:00:00 clear sky 45.550 45.550 45.550 17 3.64 m/h 0 %

Famous Cities (60)